sensor_id;sensor_type;location;lat;lon;timestamp;P1;durP1;ratioP1;P2;durP2;ratioP2
17592;SDS011;8915;51.760;14.300;2023-12-29T00:02:02;1.57;;;1.30;;
17592;SDS011;8915;51.760;14.300;2023-12-29T00:04:29;1.57;;;1.43;;
17592;SDS011;8915;51.760;14.300;2023-12-29T00:06:55;1.40;;;1.10;;
17592;SDS011;8915;51.760;14.300;2023-12-29T00:09:22;1.10;;;1.00;;
17592;SDS011;8915;51.760;14.300;2023-12-29T00:11:49;3.07;;;1.50;;
17592;SDS011;8915;51.760;14.300;2023-12-29T00:14:16;1.63;;;1.37;;
17592;SDS011;8915;51.760;14.300;2023-12-29T00:16:42;3.20;;;1.77;;
17592;SDS011;8915;51.760;14.300;2023-12-29T00:19:11;1.60;;;1.13;;
17592;SDS011;8915;51.760;14.300;2023-12-29T00:21:37;1.30;;;1.10;;
17592;SDS011;8915;51.760;14.300;2023-12-29T00:24:03;1.73;;;1.27;;
17592;SDS011;8915;51.760;14.300;2023-12-29T00:26:30;1.50;;;1.20;;
17592;SDS011;8915;51.760;14.300;2023-12-29T00:28:58;1.20;;;1.10;;
17592;SDS011;8915;51.760;14.300;2023-12-29T00:31:24;1.40;;;1.17;;
17592;SDS011;8915;51.760;14.300;2023-12-29T00:33:51;2.10;;;1.20;;
17592;SDS011;8915;51.760;14.300;2023-12-29T00:36:19;2.07;;;1.10;;
17592;SDS011;8915;51.760;14.300;2023-12-29T00:38:46;2.13;;;1.00;;
17592;SDS011;8915;51.760;14.300;2023-12-29T00:41:12;3.33;;;1.33;;
17592;SDS011;8915;51.760;14.300;2023-12-29T00:43:40;2.03;;;1.07;;
17592;SDS011;8915;51.760;14.300;2023-12-29T00:46:07;5.33;;;1.33;;
17592;SDS011;8915;51.760;14.300;2023-12-29T00:48:34;1.83;;;1.00;;
17592;SDS011;8915;51.760;14.300;2023-12-29T00:51:00;1.67;;;1.20;;
17592;SDS011;8915;51.760;14.300;2023-12-29T00:53:29;1.70;;;1.20;;
17592;SDS011;8915;51.760;14.300;2023-12-29T00:55:57;2.63;;;1.23;;
17592;SDS011;8915;51.760;14.300;2023-12-29T00:58:23;1.90;;;1.20;;
17592;SDS011;8915;51.760;14.300;2023-12-29T01:00:49;1.93;;;1.40;;
17592;SDS011;8915;51.760;14.300;2023-12-29T01:03:16;1.17;;;1.00;;
17592;SDS011;8915;51.760;14.300;2023-12-29T01:05:42;1.90;;;1.57;;
17592;SDS011;8915;51.760;14.300;2023-12-29T01:08:09;2.40;;;1.30;;
17592;SDS011;8915;51.760;14.300;2023-12-29T01:10:36;3.47;;;1.30;;
17592;SDS011;8915;51.760;14.300;2023-12-29T01:13:03;1.33;;;1.23;;
17592;SDS011;8915;51.760;14.300;2023-12-29T01:15:29;2.70;;;1.47;;
17592;SDS011;8915;51.760;14.300;2023-12-29T01:17:56;2.60;;;1.40;;
17592;SDS011;8915;51.760;14.300;2023-12-29T01:20:22;1.60;;;1.50;;
17592;SDS011;8915;51.760;14.300;2023-12-29T01:22:48;2.00;;;1.20;;
17592;SDS011;8915;51.760;14.300;2023-12-29T01:25:15;2.03;;;1.53;;
17592;SDS011;8915;51.760;14.300;2023-12-29T01:27:43;1.60;;;1.40;;
17592;SDS011;8915;51.760;14.300;2023-12-29T01:30:09;1.47;;;1.37;;
17592;SDS011;8915;51.760;14.300;2023-12-29T01:32:36;1.37;;;1.27;;
17592;SDS011;8915;51.760;14.300;2023-12-29T01:35:03;1.60;;;1.27;;
17592;SDS011;8915;51.760;14.300;2023-12-29T01:37:31;2.67;;;1.30;;
17592;SDS011;8915;51.760;14.300;2023-12-29T01:39:58;3.20;;;1.60;;
17592;SDS011;8915;51.760;14.300;2023-12-29T01:42:24;1.60;;;1.40;;
17592;SDS011;8915;51.760;14.300;2023-12-29T01:44:51;1.63;;;1.53;;
17592;SDS011;8915;51.760;14.300;2023-12-29T01:47:19;2.73;;;1.50;;
17592;SDS011;8915;51.760;14.300;2023-12-29T01:49:47;1.80;;;1.20;;
17592;SDS011;8915;51.760;14.300;2023-12-29T01:52:15;1.90;;;1.60;;
17592;SDS011;8915;51.760;14.300;2023-12-29T01:54:44;2.10;;;1.50;;
17592;SDS011;8915;51.760;14.300;2023-12-29T01:57:12;1.97;;;1.30;;
17592;SDS011;8915;51.760;14.300;2023-12-29T01:59:39;1.87;;;1.30;;
17592;SDS011;8915;51.760;14.300;2023-12-29T02:02:08;5.73;;;1.90;;
17592;SDS011;8915;51.760;14.300;2023-12-29T02:04:34;1.80;;;1.60;;
17592;SDS011;8915;51.760;14.300;2023-12-29T02:07:03;2.47;;;1.50;;
17592;SDS011;8915;51.760;14.300;2023-12-29T02:09:30;2.17;;;1.60;;
17592;SDS011;8915;51.760;14.300;2023-12-29T02:11:58;1.20;;;1.10;;
17592;SDS011;8915;51.760;14.300;2023-12-29T02:14:25;1.63;;;1.30;;
17592;SDS011;8915;51.760;14.300;2023-12-29T02:16:54;2.00;;;1.27;;
17592;SDS011;8915;51.760;14.300;2023-12-29T02:19:37;2.03;;;1.60;;
17592;SDS011;8915;51.760;14.300;2023-12-29T02:22:05;2.53;;;1.40;;
17592;SDS011;8915;51.760;14.300;2023-12-29T02:24:34;1.73;;;1.60;;
17592;SDS011;8915;51.760;14.300;2023-12-29T02:27:05;1.80;;;1.50;;
17592;SDS011;8915;51.760;14.300;2023-12-29T02:29:37;2.20;;;1.20;;
17592;SDS011;8915;51.760;14.300;2023-12-29T02:32:06;1.43;;;1.30;;
17592;SDS011;8915;51.760;14.300;2023-12-29T02:34:38;2.77;;;1.43;;
17592;SDS011;8915;51.760;14.300;2023-12-29T02:37:07;1.50;;;1.40;;
17592;SDS011;8915;51.760;14.300;2023-12-29T02:39:35;1.67;;;1.50;;
17592;SDS011;8915;51.760;14.300;2023-12-29T02:42:03;3.10;;;1.50;;
17592;SDS011;8915;51.760;14.300;2023-12-29T02:44:30;3.33;;;1.40;;
17592;SDS011;8915;51.760;14.300;2023-12-29T02:46:56;1.67;;;1.20;;
17592;SDS011;8915;51.760;14.300;2023-12-29T02:49:24;1.60;;;1.50;;
17592;SDS011;8915;51.760;14.300;2023-12-29T02:51:52;2.77;;;1.50;;
17592;SDS011;8915;51.760;14.300;2023-12-29T02:54:18;1.37;;;1.27;;
17592;SDS011;8915;51.760;14.300;2023-12-29T02:56:45;2.40;;;1.40;;
17592;SDS011;8915;51.760;14.300;2023-12-29T02:59:13;2.87;;;1.60;;
17592;SDS011;8915;51.760;14.300;2023-12-29T03:01:39;1.43;;;1.20;;
17592;SDS011;8915;51.760;14.300;2023-12-29T03:04:06;1.60;;;1.50;;
17592;SDS011;8915;51.760;14.300;2023-12-29T03:06:33;2.03;;;1.33;;
17592;SDS011;8915;51.760;14.300;2023-12-29T03:08:59;1.50;;;1.30;;
17592;SDS011;8915;51.760;14.300;2023-12-29T03:11:26;1.53;;;1.30;;
17592;SDS011;8915;51.760;14.300;2023-12-29T03:13:52;3.03;;;1.53;;
17592;SDS011;8915;51.760;14.300;2023-12-29T03:16:20;1.50;;;1.13;;
17592;SDS011;8915;51.760;14.300;2023-12-29T03:18:46;2.40;;;1.33;;
17592;SDS011;8915;51.760;14.300;2023-12-29T03:21:12;1.43;;;1.23;;
17592;SDS011;8915;51.760;14.300;2023-12-29T03:23:39;1.53;;;1.27;;
17592;SDS011;8915;51.760;14.300;2023-12-29T03:26:05;2.93;;;1.20;;
17592;SDS011;8915;51.760;14.300;2023-12-29T03:28:31;1.20;;;1.10;;
17592;SDS011;8915;51.760;14.300;2023-12-29T03:30:58;1.73;;;1.30;;
17592;SDS011;8915;51.760;14.300;2023-12-29T03:33:25;2.10;;;1.33;;
17592;SDS011;8915;51.760;14.300;2023-12-29T03:35:52;1.53;;;1.20;;
17592;SDS011;8915;51.760;14.300;2023-12-29T03:38:18;1.63;;;1.53;;
17592;SDS011;8915;51.760;14.300;2023-12-29T03:40:46;1.40;;;1.30;;
17592;SDS011;8915;51.760;14.300;2023-12-29T03:43:13;1.43;;;1.33;;
17592;SDS011;8915;51.760;14.300;2023-12-29T03:45:39;2.73;;;1.30;;
17592;SDS011;8915;51.760;14.300;2023-12-29T03:48:07;1.87;;;1.20;;
17592;SDS011;8915;51.760;14.300;2023-12-29T03:50:36;1.13;;;1.00;;
17592;SDS011;8915;51.760;14.300;2023-12-29T03:53:02;1.20;;;1.10;;
17592;SDS011;8915;51.760;14.300;2023-12-29T03:55:28;2.53;;;1.13;;
17592;SDS011;8915;51.760;14.300;2023-12-29T03:57:55;1.03;;;0.90;;
17592;SDS011;8915;51.760;14.300;2023-12-29T04:00:21;1.77;;;1.33;;
17592;SDS011;8915;51.760;14.300;2023-12-29T04:02:49;1.30;;;1.00;;
17592;SDS011;8915;51.760;14.300;2023-12-29T04:05:15;1.37;;;1.00;;
17592;SDS011;8915;51.760;14.300;2023-12-29T04:07:43;1.30;;;1.20;;
17592;SDS011;8915;51.760;14.300;2023-12-29T04:10:09;1.97;;;1.00;;
17592;SDS011;8915;51.760;14.300;2023-12-29T04:12:36;1.60;;;1.30;;
17592;SDS011;8915;51.760;14.300;2023-12-29T04:15:03;1.80;;;1.00;;
17592;SDS011;8915;51.760;14.300;2023-12-29T04:17:29;1.10;;;1.00;;
17592;SDS011;8915;51.760;14.300;2023-12-29T04:19:56;1.10;;;1.00;;
17592;SDS011;8915;51.760;14.300;2023-12-29T04:22:22;1.00;;;0.90;;
17592;SDS011;8915;51.760;14.300;2023-12-29T04:24:50;1.00;;;0.87;;
17592;SDS011;8915;51.760;14.300;2023-12-29T04:27:16;2.20;;;0.90;;
17592;SDS011;8915;51.760;14.300;2023-12-29T04:29:43;1.00;;;1.00;;
17592;SDS011;8915;51.760;14.300;2023-12-29T04:32:10;1.10;;;0.90;;
17592;SDS011;8915;51.760;14.300;2023-12-29T04:34:36;0.80;;;0.80;;
17592;SDS011;8915;51.760;14.300;2023-12-29T04:37:03;1.30;;;1.00;;
17592;SDS011;8915;51.760;14.300;2023-12-29T04:39:30;1.40;;;1.00;;
17592;SDS011;8915;51.760;14.300;2023-12-29T04:41:58;1.07;;;0.90;;
17592;SDS011;8915;51.760;14.300;2023-12-29T04:44:24;1.47;;;1.30;;
17592;SDS011;8915;51.760;14.300;2023-12-29T04:46:50;2.00;;;0.87;;
17592;SDS011;8915;51.760;14.300;2023-12-29T04:49:17;0.80;;;0.80;;
17592;SDS011;8915;51.760;14.300;2023-12-29T04:51:43;0.93;;;0.93;;
17592;SDS011;8915;51.760;14.300;2023-12-29T04:54:09;1.20;;;1.10;;
17592;SDS011;8915;51.760;14.300;2023-12-29T04:56:36;1.67;;;1.00;;
17592;SDS011;8915;51.760;14.300;2023-12-29T04:59:03;1.10;;;0.97;;
17592;SDS011;8915;51.760;14.300;2023-12-29T05:01:30;0.77;;;0.77;;
17592;SDS011;8915;51.760;14.300;2023-12-29T05:03:56;0.70;;;0.70;;
17592;SDS011;8915;51.760;14.300;2023-12-29T05:06:22;1.00;;;0.80;;
17592;SDS011;8915;51.760;14.300;2023-12-29T05:08:49;0.80;;;0.80;;
17592;SDS011;8915;51.760;14.300;2023-12-29T05:11:15;0.83;;;0.70;;
17592;SDS011;8915;51.760;14.300;2023-12-29T05:13:41;1.00;;;0.73;;
17592;SDS011;8915;51.760;14.300;2023-12-29T05:16:09;0.70;;;0.70;;
17592;SDS011;8915;51.760;14.300;2023-12-29T05:18:35;0.80;;;0.80;;
17592;SDS011;8915;51.760;14.300;2023-12-29T05:21:02;4.77;;;1.00;;
17592;SDS011;8915;51.760;14.300;2023-12-29T05:23:28;1.00;;;0.90;;
17592;SDS011;8915;51.760;14.300;2023-12-29T05:25:54;0.70;;;0.70;;
17592;SDS011;8915;51.760;14.300;2023-12-29T05:28:21;1.67;;;0.73;;
17592;SDS011;8915;51.760;14.300;2023-12-29T05:30:47;0.70;;;0.70;;
17592;SDS011;8915;51.760;14.300;2023-12-29T05:33:15;0.77;;;0.73;;
17592;SDS011;8915;51.760;14.300;2023-12-29T05:35:41;0.80;;;0.80;;
17592;SDS011;8915;51.760;14.300;2023-12-29T05:38:07;0.60;;;0.60;;
17592;SDS011;8915;51.760;14.300;2023-12-29T05:40:34;0.90;;;0.70;;
17592;SDS011;8915;51.760;14.300;2023-12-29T05:43:00;0.60;;;0.60;;
17592;SDS011;8915;51.760;14.300;2023-12-29T05:45:26;0.73;;;0.73;;
17592;SDS011;8915;51.760;14.300;2023-12-29T05:47:52;0.90;;;0.70;;
17592;SDS011;8915;51.760;14.300;2023-12-29T05:50:20;0.90;;;0.80;;
17592;SDS011;8915;51.760;14.300;2023-12-29T05:52:46;1.23;;;0.60;;
17592;SDS011;8915;51.760;14.300;2023-12-29T05:55:16;1.17;;;1.00;;
17592;SDS011;8915;51.760;14.300;2023-12-29T05:57:43;0.83;;;0.83;;
17592;SDS011;8915;51.760;14.300;2023-12-29T06:00:10;2.10;;;0.80;;
17592;SDS011;8915;51.760;14.300;2023-12-29T06:02:39;0.83;;;0.80;;
17592;SDS011;8915;51.760;14.300;2023-12-29T06:05:06;0.80;;;0.80;;
17592;SDS011;8915;51.760;14.300;2023-12-29T06:07:34;1.07;;;0.97;;
17592;SDS011;8915;51.760;14.300;2023-12-29T06:10:00;0.77;;;0.77;;
17592;SDS011;8915;51.760;14.300;2023-12-29T06:12:27;0.80;;;0.80;;
17592;SDS011;8915;51.760;14.300;2023-12-29T06:14:53;1.13;;;0.80;;
17592;SDS011;8915;51.760;14.300;2023-12-29T06:17:20;1.10;;;1.00;;
17592;SDS011;8915;51.760;14.300;2023-12-29T06:19:46;1.10;;;0.80;;
17592;SDS011;8915;51.760;14.300;2023-12-29T06:22:12;1.53;;;1.00;;
17592;SDS011;8915;51.760;14.300;2023-12-29T06:24:40;1.10;;;1.00;;
17592;SDS011;8915;51.760;14.300;2023-12-29T06:27:07;0.80;;;0.80;;
17592;SDS011;8915;51.760;14.300;2023-12-29T06:29:34;1.27;;;1.10;;
17592;SDS011;8915;51.760;14.300;2023-12-29T06:32:00;1.00;;;0.90;;
17592;SDS011;8915;51.760;14.300;2023-12-29T06:34:27;0.90;;;0.90;;
17592;SDS011;8915;51.760;14.300;2023-12-29T06:36:53;1.00;;;0.90;;
17592;SDS011;8915;51.760;14.300;2023-12-29T06:39:19;1.10;;;1.00;;
17592;SDS011;8915;51.760;14.300;2023-12-29T06:41:47;1.33;;;0.80;;
17592;SDS011;8915;51.760;14.300;2023-12-29T06:44:13;1.00;;;0.90;;
17592;SDS011;8915;51.760;14.300;2023-12-29T06:46:40;1.30;;;1.20;;
17592;SDS011;8915;51.760;14.300;2023-12-29T06:49:07;0.90;;;0.80;;
17592;SDS011;8915;51.760;14.300;2023-12-29T06:51:34;0.93;;;0.93;;
17592;SDS011;8915;51.760;14.300;2023-12-29T06:54:00;1.00;;;0.90;;
17592;SDS011;8915;51.760;14.300;2023-12-29T06:56:27;0.97;;;0.97;;
17592;SDS011;8915;51.760;14.300;2023-12-29T06:58:55;2.20;;;1.00;;
17592;SDS011;8915;51.760;14.300;2023-12-29T07:01:21;0.90;;;0.90;;
17592;SDS011;8915;51.760;14.300;2023-12-29T07:03:47;1.10;;;1.00;;
17592;SDS011;8915;51.760;14.300;2023-12-29T07:06:14;1.33;;;1.20;;
17592;SDS011;8915;51.760;14.300;2023-12-29T07:08:40;1.00;;;0.83;;
17592;SDS011;8915;51.760;14.300;2023-12-29T07:11:08;3.30;;;1.60;;
17592;SDS011;8915;51.760;14.300;2023-12-29T07:13:35;5.70;;;1.53;;
17592;SDS011;8915;51.760;14.300;2023-12-29T07:16:03;1.30;;;1.20;;
17592;SDS011;8915;51.760;14.300;2023-12-29T07:18:30;1.50;;;1.40;;
17592;SDS011;8915;51.760;14.300;2023-12-29T07:20:56;2.93;;;1.80;;
17592;SDS011;8915;51.760;14.300;2023-12-29T07:23:23;2.20;;;2.00;;
17592;SDS011;8915;51.760;14.300;2023-12-29T07:25:49;2.50;;;2.00;;
17592;SDS011;8915;51.760;14.300;2023-12-29T07:28:15;3.10;;;1.67;;
17592;SDS011;8915;51.760;14.300;2023-12-29T07:30:42;7.57;;;3.10;;
17592;SDS011;8915;51.760;14.300;2023-12-29T07:33:10;9.57;;;3.83;;
17592;SDS011;8915;51.760;14.300;2023-12-29T07:35:36;5.93;;;2.43;;
17592;SDS011;8915;51.760;14.300;2023-12-29T07:38:03;5.13;;;1.90;;
17592;SDS011;8915;51.760;14.300;2023-12-29T07:40:29;2.83;;;1.43;;
17592;SDS011;8915;51.760;14.300;2023-12-29T07:42:55;2.13;;;1.50;;
17592;SDS011;8915;51.760;14.300;2023-12-29T07:45:22;4.57;;;2.27;;
17592;SDS011;8915;51.760;14.300;2023-12-29T07:47:49;2.30;;;1.70;;
17592;SDS011;8915;51.760;14.300;2023-12-29T07:50:17;1.23;;;1.13;;
17592;SDS011;8915;51.760;14.300;2023-12-29T07:52:43;1.83;;;1.27;;
17592;SDS011;8915;51.760;14.300;2023-12-29T07:55:10;1.20;;;1.10;;
17592;SDS011;8915;51.760;14.300;2023-12-29T07:57:36;1.10;;;1.00;;
17592;SDS011;8915;51.760;14.300;2023-12-29T08:00:03;2.43;;;1.40;;
17592;SDS011;8915;51.760;14.300;2023-12-29T08:02:37;2.00;;;1.40;;
17592;SDS011;8915;51.760;14.300;2023-12-29T08:05:03;2.57;;;1.30;;
17592;SDS011;8915;51.760;14.300;2023-12-29T08:07:31;1.60;;;1.50;;
17592;SDS011;8915;51.760;14.300;2023-12-29T08:09:58;6.53;;;3.57;;
17592;SDS011;8915;51.760;14.300;2023-12-29T08:12:25;3.10;;;2.47;;
17592;SDS011;8915;51.760;14.300;2023-12-29T08:14:53;3.23;;;2.40;;
17592;SDS011;8915;51.760;14.300;2023-12-29T08:17:19;1.97;;;1.50;;
17592;SDS011;8915;51.760;14.300;2023-12-29T08:19:46;2.57;;;1.40;;
17592;SDS011;8915;51.760;14.300;2023-12-29T08:22:12;1.70;;;1.50;;
17592;SDS011;8915;51.760;14.300;2023-12-29T08:24:41;1.50;;;1.40;;
17592;SDS011;8915;51.760;14.300;2023-12-29T08:27:08;1.33;;;1.20;;
17592;SDS011;8915;51.760;14.300;2023-12-29T08:29:35;2.77;;;1.30;;
17592;SDS011;8915;51.760;14.300;2023-12-29T08:32:03;1.77;;;1.30;;
17592;SDS011;8915;51.760;14.300;2023-12-29T08:34:29;3.67;;;1.50;;
17592;SDS011;8915;51.760;14.300;2023-12-29T08:36:56;1.00;;;1.00;;
17592;SDS011;8915;51.760;14.300;2023-12-29T08:39:22;1.20;;;1.10;;
17592;SDS011;8915;51.760;14.300;2023-12-29T08:41:50;4.10;;;1.60;;
17592;SDS011;8915;51.760;14.300;2023-12-29T08:44:17;2.83;;;2.23;;
17592;SDS011;8915;51.760;14.300;2023-12-29T08:46:43;1.50;;;1.40;;
17592;SDS011;8915;51.760;14.300;2023-12-29T08:49:10;2.00;;;1.40;;
17592;SDS011;8915;51.760;14.300;2023-12-29T08:51:36;1.97;;;1.50;;
17592;SDS011;8915;51.760;14.300;2023-12-29T08:54:02;2.23;;;1.40;;
17592;SDS011;8915;51.760;14.300;2023-12-29T08:56:29;3.13;;;1.30;;
17592;SDS011;8915;51.760;14.300;2023-12-29T08:58:56;1.60;;;1.20;;
17592;SDS011;8915;51.760;14.300;2023-12-29T09:01:23;2.50;;;1.10;;
17592;SDS011;8915;51.760;14.300;2023-12-29T09:03:49;1.53;;;1.43;;
17592;SDS011;8915;51.760;14.300;2023-12-29T09:06:15;1.93;;;1.20;;
17592;SDS011;8915;51.760;14.300;2023-12-29T09:08:42;1.20;;;1.10;;
17592;SDS011;8915;51.760;14.300;2023-12-29T09:11:08;1.57;;;1.40;;
17592;SDS011;8915;51.760;14.300;2023-12-29T09:13:35;1.40;;;1.30;;
17592;SDS011;8915;51.760;14.300;2023-12-29T09:16:02;1.20;;;1.10;;
17592;SDS011;8915;51.760;14.300;2023-12-29T09:18:29;1.10;;;1.00;;
17592;SDS011;8915;51.760;14.300;2023-12-29T09:20:55;3.20;;;1.23;;
17592;SDS011;8915;51.760;14.300;2023-12-29T09:23:22;1.53;;;1.40;;
17592;SDS011;8915;51.760;14.300;2023-12-29T09:25:48;1.60;;;1.17;;
17592;SDS011;8915;51.760;14.300;2023-12-29T09:28:14;1.60;;;1.47;;
17592;SDS011;8915;51.760;14.300;2023-12-29T09:30:41;1.40;;;1.20;;
17592;SDS011;8915;51.760;14.300;2023-12-29T09:33:08;1.60;;;1.10;;
17592;SDS011;8915;51.760;14.300;2023-12-29T09:35:37;1.27;;;1.17;;
17592;SDS011;8915;51.760;14.300;2023-12-29T09:38:03;3.50;;;1.60;;
17592;SDS011;8915;51.760;14.300;2023-12-29T09:40:30;1.90;;;1.30;;
17592;SDS011;8915;51.760;14.300;2023-12-29T09:42:57;2.67;;;1.57;;
17592;SDS011;8915;51.760;14.300;2023-12-29T09:45:25;1.67;;;1.43;;
17592;SDS011;8915;51.760;14.300;2023-12-29T09:47:52;3.20;;;1.40;;
17592;SDS011;8915;51.760;14.300;2023-12-29T09:50:21;1.40;;;1.30;;
17592;SDS011;8915;51.760;14.300;2023-12-29T09:52:48;1.37;;;1.27;;
17592;SDS011;8915;51.760;14.300;2023-12-29T09:55:15;2.33;;;1.23;;
17592;SDS011;8915;51.760;14.300;2023-12-29T09:57:42;1.30;;;1.20;;
17592;SDS011;8915;51.760;14.300;2023-12-29T10:00:10;4.03;;;1.20;;
17592;SDS011;8915;51.760;14.300;2023-12-29T10:02:37;1.33;;;1.10;;
17592;SDS011;8915;51.760;14.300;2023-12-29T10:05:04;3.17;;;1.50;;
17592;SDS011;8915;51.760;14.300;2023-12-29T10:07:35;3.27;;;1.20;;
17592;SDS011;8915;51.760;14.300;2023-12-29T10:10:03;2.53;;;1.77;;
17592;SDS011;8915;51.760;14.300;2023-12-29T10:12:32;2.03;;;1.10;;
17592;SDS011;8915;51.760;14.300;2023-12-29T10:15:01;1.27;;;1.17;;
17592;SDS011;8915;51.760;14.300;2023-12-29T10:17:35;2.10;;;1.30;;
17592;SDS011;8915;51.760;14.300;2023-12-29T10:20:11;2.07;;;1.20;;
17592;SDS011;8915;51.760;14.300;2023-12-29T10:22:48;3.97;;;1.40;;
17592;SDS011;8915;51.760;14.300;2023-12-29T10:25:20;1.37;;;1.27;;
17592;SDS011;8915;51.760;14.300;2023-12-29T10:27:49;2.03;;;1.23;;
17592;SDS011;8915;51.760;14.300;2023-12-29T10:30:16;3.10;;;1.37;;
17592;SDS011;8915;51.760;14.300;2023-12-29T10:32:43;1.20;;;1.10;;
17592;SDS011;8915;51.760;14.300;2023-12-29T10:35:15;1.20;;;1.10;;
17592;SDS011;8915;51.760;14.300;2023-12-29T10:37:41;1.33;;;1.10;;
17592;SDS011;8915;51.760;14.300;2023-12-29T10:40:12;1.77;;;1.50;;
17592;SDS011;8915;51.760;14.300;2023-12-29T10:42:50;2.77;;;1.40;;
17592;SDS011;8915;51.760;14.300;2023-12-29T10:45:18;3.03;;;1.60;;
17592;SDS011;8915;51.760;14.300;2023-12-29T10:47:44;3.23;;;1.60;;
17592;SDS011;8915;51.760;14.300;2023-12-29T10:50:10;2.77;;;1.30;;
17592;SDS011;8915;51.760;14.300;2023-12-29T10:52:38;2.27;;;1.30;;
17592;SDS011;8915;51.760;14.300;2023-12-29T10:55:06;1.83;;;1.50;;
17592;SDS011;8915;51.760;14.300;2023-12-29T10:57:35;1.30;;;1.17;;
17592;SDS011;8915;51.760;14.300;2023-12-29T11:00:03;2.27;;;1.40;;
17592;SDS011;8915;51.760;14.300;2023-12-29T11:02:31;2.03;;;1.10;;
17592;SDS011;8915;51.760;14.300;2023-12-29T11:05:01;1.80;;;1.70;;
17592;SDS011;8915;51.760;14.300;2023-12-29T11:07:32;1.53;;;1.10;;
17592;SDS011;8915;51.760;14.300;2023-12-29T11:10:00;1.53;;;1.37;;
17592;SDS011;8915;51.760;14.300;2023-12-29T11:12:28;1.60;;;1.13;;
17592;SDS011;8915;51.760;14.300;2023-12-29T11:14:57;2.30;;;1.40;;
17592;SDS011;8915;51.760;14.300;2023-12-29T11:17:25;5.27;;;1.60;;
17592;SDS011;8915;51.760;14.300;2023-12-29T11:19:52;1.60;;;1.40;;
17592;SDS011;8915;51.760;14.300;2023-12-29T11:22:19;1.30;;;1.07;;
17592;SDS011;8915;51.760;14.300;2023-12-29T11:24:47;1.33;;;1.23;;
17592;SDS011;8915;51.760;14.300;2023-12-29T11:27:14;1.30;;;1.20;;
17592;SDS011;8915;51.760;14.300;2023-12-29T11:29:41;2.03;;;1.60;;
17592;SDS011;8915;51.760;14.300;2023-12-29T11:32:11;2.17;;;1.50;;
17592;SDS011;8915;51.760;14.300;2023-12-29T11:34:43;1.60;;;1.50;;
17592;SDS011;8915;51.760;14.300;2023-12-29T11:37:15;1.43;;;1.23;;
17592;SDS011;8915;51.760;14.300;2023-12-29T11:39:53;2.50;;;1.77;;
17592;SDS011;8915;51.760;14.300;2023-12-29T11:42:31;1.20;;;1.10;;
17592;SDS011;8915;51.760;14.300;2023-12-29T11:47:53;1.40;;;1.17;;
17592;SDS011;8915;51.760;14.300;2023-12-29T11:50:27;1.43;;;1.30;;
17592;SDS011;8915;51.760;14.300;2023-12-29T11:52:55;2.60;;;1.70;;
17592;SDS011;8915;51.760;14.300;2023-12-29T11:55:23;2.33;;;1.70;;
17592;SDS011;8915;51.760;14.300;2023-12-29T11:57:56;2.30;;;1.40;;
17592;SDS011;8915;51.760;14.300;2023-12-29T12:03:14;0.90;;;0.90;;
17592;SDS011;8915;51.760;14.300;2023-12-29T12:05:45;5.87;;;1.50;;
17592;SDS011;8915;51.760;14.300;2023-12-29T12:08:26;1.70;;;1.23;;
17592;SDS011;8915;51.760;14.300;2023-12-29T12:10:54;2.53;;;1.30;;
17592;SDS011;8915;51.760;14.300;2023-12-29T12:16:09;1.53;;;1.40;;
17592;SDS011;8915;51.760;14.300;2023-12-29T12:18:37;1.30;;;1.20;;
17592;SDS011;8915;51.760;14.300;2023-12-29T12:21:04;0.83;;;0.83;;
17592;SDS011;8915;51.760;14.300;2023-12-29T12:23:32;3.23;;;1.50;;
17592;SDS011;8915;51.760;14.300;2023-12-29T12:26:01;5.50;;;1.10;;
17592;SDS011;8915;51.760;14.300;2023-12-29T12:28:31;3.13;;;1.03;;
17592;SDS011;8915;51.760;14.300;2023-12-29T12:31:04;2.17;;;1.10;;
17592;SDS011;8915;51.760;14.300;2023-12-29T12:33:32;1.10;;;1.10;;
17592;SDS011;8915;51.760;14.300;2023-12-29T12:36:00;3.47;;;1.50;;
17592;SDS011;8915;51.760;14.300;2023-12-29T12:38:27;1.83;;;1.27;;
17592;SDS011;8915;51.760;14.300;2023-12-29T12:40:55;2.07;;;1.10;;
17592;SDS011;8915;51.760;14.300;2023-12-29T12:43:22;1.57;;;1.10;;
17592;SDS011;8915;51.760;14.300;2023-12-29T12:45:52;1.23;;;1.00;;
17592;SDS011;8915;51.760;14.300;2023-12-29T12:48:27;0.97;;;0.97;;
17592;SDS011;8915;51.760;14.300;2023-12-29T12:50:59;1.00;;;0.90;;
17592;SDS011;8915;51.760;14.300;2023-12-29T12:53:26;1.73;;;1.40;;
17592;SDS011;8915;51.760;14.300;2023-12-29T12:55:52;1.53;;;1.27;;
17592;SDS011;8915;51.760;14.300;2023-12-29T12:58:19;1.90;;;1.10;;
17592;SDS011;8915;51.760;14.300;2023-12-29T13:00:47;1.30;;;1.10;;
17592;SDS011;8915;51.760;14.300;2023-12-29T13:03:14;1.97;;;1.20;;
17592;SDS011;8915;51.760;14.300;2023-12-29T13:05:41;2.60;;;1.10;;
17592;SDS011;8915;51.760;14.300;2023-12-29T13:08:10;1.10;;;1.00;;
17592;SDS011;8915;51.760;14.300;2023-12-29T13:10:40;0.93;;;0.80;;
17592;SDS011;8915;51.760;14.300;2023-12-29T13:13:07;1.47;;;1.30;;
17592;SDS011;8915;51.760;14.300;2023-12-29T13:15:33;1.13;;;1.03;;
17592;SDS011;8915;51.760;14.300;2023-12-29T13:18:00;1.20;;;1.00;;
17592;SDS011;8915;51.760;14.300;2023-12-29T13:20:26;3.10;;;1.20;;
17592;SDS011;8915;51.760;14.300;2023-12-29T13:22:53;2.50;;;1.20;;
17592;SDS011;8915;51.760;14.300;2023-12-29T13:25:21;2.07;;;1.20;;
17592;SDS011;8915;51.760;14.300;2023-12-29T13:27:51;1.67;;;1.07;;
17592;SDS011;8915;51.760;14.300;2023-12-29T13:30:19;1.40;;;1.30;;
17592;SDS011;8915;51.760;14.300;2023-12-29T13:32:46;1.13;;;1.00;;
17592;SDS011;8915;51.760;14.300;2023-12-29T13:35:16;1.50;;;1.40;;
17592;SDS011;8915;51.760;14.300;2023-12-29T13:37:48;1.87;;;1.03;;
17592;SDS011;8915;51.760;14.300;2023-12-29T13:40:22;3.93;;;1.20;;
17592;SDS011;8915;51.760;14.300;2023-12-29T13:42:53;1.47;;;1.10;;
17592;SDS011;8915;51.760;14.300;2023-12-29T13:45:23;1.50;;;1.07;;
17592;SDS011;8915;51.760;14.300;2023-12-29T13:47:50;1.50;;;1.40;;
17592;SDS011;8915;51.760;14.300;2023-12-29T13:50:18;2.70;;;1.10;;
17592;SDS011;8915;51.760;14.300;2023-12-29T13:52:44;1.43;;;1.17;;
17592;SDS011;8915;51.760;14.300;2023-12-29T13:55:11;2.70;;;1.30;;
17592;SDS011;8915;51.760;14.300;2023-12-29T13:57:38;1.30;;;1.20;;
17592;SDS011;8915;51.760;14.300;2023-12-29T14:00:15;3.83;;;1.60;;
17592;SDS011;8915;51.760;14.300;2023-12-29T14:02:43;1.80;;;1.00;;
17592;SDS011;8915;51.760;14.300;2023-12-29T14:05:11;1.43;;;1.10;;
17592;SDS011;8915;51.760;14.300;2023-12-29T14:07:45;2.50;;;1.13;;
17592;SDS011;8915;51.760;14.300;2023-12-29T14:10:17;2.03;;;1.10;;
17592;SDS011;8915;51.760;14.300;2023-12-29T14:12:45;1.43;;;1.10;;
17592;SDS011;8915;51.760;14.300;2023-12-29T14:15:11;2.00;;;1.00;;
17592;SDS011;8915;51.760;14.300;2023-12-29T14:17:38;1.43;;;1.10;;
17592;SDS011;8915;51.760;14.300;2023-12-29T14:20:05;3.23;;;1.33;;
17592;SDS011;8915;51.760;14.300;2023-12-29T14:22:33;1.43;;;1.00;;
17592;SDS011;8915;51.760;14.300;2023-12-29T14:25:00;2.33;;;1.27;;
17592;SDS011;8915;51.760;14.300;2023-12-29T14:27:28;1.80;;;1.13;;
17592;SDS011;8915;51.760;14.300;2023-12-29T14:29:56;1.37;;;1.10;;
17592;SDS011;8915;51.760;14.300;2023-12-29T14:32:23;1.30;;;1.20;;
17592;SDS011;8915;51.760;14.300;2023-12-29T14:34:50;2.90;;;1.20;;
17592;SDS011;8915;51.760;14.300;2023-12-29T14:37:18;1.70;;;1.10;;
17592;SDS011;8915;51.760;14.300;2023-12-29T14:39:46;2.13;;;1.23;;
17592;SDS011;8915;51.760;14.300;2023-12-29T14:42:14;1.40;;;1.20;;
17592;SDS011;8915;51.760;14.300;2023-12-29T14:44:40;1.43;;;1.30;;
17592;SDS011;8915;51.760;14.300;2023-12-29T14:47:08;1.23;;;1.10;;
17592;SDS011;8915;51.760;14.300;2023-12-29T14:49:34;1.33;;;1.00;;
17592;SDS011;8915;51.760;14.300;2023-12-29T14:52:00;1.30;;;1.20;;
17592;SDS011;8915;51.760;14.300;2023-12-29T14:54:27;1.10;;;1.00;;
17592;SDS011;8915;51.760;14.300;2023-12-29T14:56:53;2.63;;;1.60;;
17592;SDS011;8915;51.760;14.300;2023-12-29T14:59:20;1.10;;;1.00;;